createdAt,value
2019-05-21T00:00:30.769Z,18.90
2019-05-21T00:02:35.232Z,18.90
2019-05-21T00:04:39.479Z,19.00
2019-05-21T00:06:43.637Z,19.00
2019-05-21T00:08:47.826Z,19.00
2019-05-21T00:10:52.023Z,18.90
2019-05-21T00:12:56.168Z,18.90
2019-05-21T00:15:00.371Z,18.80
2019-05-21T00:17:04.564Z,18.90
2019-05-21T00:19:08.734Z,19.00
2019-05-21T00:21:12.889Z,18.90
2019-05-21T00:23:17.082Z,18.90
2019-05-21T00:25:21.270Z,19.00
2019-05-21T00:27:25.444Z,18.90
2019-05-21T00:30:05.950Z,19.00
2019-05-21T00:32:46.284Z,19.00
2019-05-21T00:35:28.672Z,19.00
2019-05-21T00:38:09.180Z,19.00
2019-05-21T00:40:49.255Z,19.00
2019-05-21T00:42:53.857Z,18.90
2019-05-21T00:44:58.147Z,18.90
2019-05-21T00:47:02.376Z,18.90
2019-05-21T00:49:06.596Z,18.90
2019-05-21T00:51:10.932Z,19.00
2019-05-21T00:53:15.087Z,19.10
2019-05-21T00:55:19.266Z,19.10
2019-05-21T00:57:23.482Z,19.20
2019-05-21T00:59:27.641Z,19.20
2019-05-21T01:01:31.990Z,19.30
2019-05-21T01:03:36.276Z,19.30
2019-05-21T01:05:40.730Z,19.20
2019-05-21T01:07:44.955Z,19.10
2019-05-21T01:09:49.142Z,19.10
2019-05-21T01:11:53.314Z,19.10
2019-05-21T01:13:57.623Z,19.00
2019-05-21T01:16:01.819Z,19.10
2019-05-21T01:18:05.985Z,19.10
2019-05-21T01:20:10.153Z,19.00
2019-05-21T01:22:14.332Z,19.00
2019-05-21T01:24:18.478Z,19.00
2019-05-21T01:26:22.653Z,19.00
2019-05-21T01:28:26.948Z,19.00
2019-05-21T01:30:31.112Z,19.00
2019-05-21T01:32:35.341Z,19.10
2019-05-21T01:34:39.512Z,19.10
2019-05-21T01:36:43.660Z,19.10
2019-05-21T01:38:47.920Z,19.00
2019-05-21T01:40:52.132Z,19.00
2019-05-21T01:42:56.347Z,18.90
2019-05-21T01:45:00.523Z,18.90
2019-05-21T01:47:04.707Z,18.90
2019-05-21T01:49:08.875Z,18.80
2019-05-21T01:51:13.027Z,18.80
2019-05-21T01:53:17.212Z,18.90
2019-05-21T01:55:21.363Z,18.90
2019-05-21T01:57:25.691Z,18.90
2019-05-21T01:59:29.848Z,18.90
2019-05-21T02:01:34.027Z,18.90
2019-05-21T02:03:38.187Z,18.90
2019-05-21T02:05:42.418Z,18.80
2019-05-21T02:07:46.598Z,18.90
2019-05-21T02:09:59.912Z,18.80
2019-05-21T02:12:04.069Z,18.80
2019-05-21T02:14:08.253Z,18.80
2019-05-21T02:16:12.399Z,18.70
2019-05-21T02:18:16.588Z,18.70
2019-05-21T02:20:20.784Z,18.70
2019-05-21T02:22:24.934Z,18.60
2019-05-21T02:24:29.111Z,18.70
2019-05-21T02:26:33.262Z,18.70
2019-05-21T02:28:37.455Z,18.80
2019-05-21T02:30:41.773Z,18.70
2019-05-21T02:32:46.049Z,18.70
2019-05-21T02:34:50.205Z,18.60
2019-05-21T02:36:54.369Z,18.60
2019-05-21T02:38:58.537Z,18.60
2019-05-21T02:41:02.829Z,18.60
2019-05-21T02:43:07.176Z,18.60
2019-05-21T02:45:11.670Z,18.60
2019-05-21T02:47:15.890Z,18.60
2019-05-21T02:49:20.103Z,18.60
2019-05-21T02:51:24.278Z,18.50
2019-05-21T02:53:28.475Z,18.50
2019-05-21T02:55:32.883Z,18.50
2019-05-21T02:57:41.375Z,18.50
2019-05-21T02:59:47.537Z,18.40
2019-05-21T03:02:00.793Z,18.50
2019-05-21T03:04:04.975Z,18.50
2019-05-21T03:06:14.772Z,18.40
2019-05-21T03:08:15.113Z,18.30
2019-05-21T03:10:19.453Z,18.30
2019-05-21T03:12:23.651Z,18.30
2019-05-21T03:14:27.816Z,18.30
2019-05-21T03:16:31.991Z,18.30
2019-05-21T03:18:36.170Z,18.30
2019-05-21T03:20:40.401Z,18.30
2019-05-21T03:22:44.568Z,18.20
2019-05-21T03:24:48.819Z,18.20
2019-05-21T03:26:52.990Z,18.20
2019-05-21T03:28:57.177Z,18.10
2019-05-21T03:31:01.435Z,18.10
2019-05-21T03:33:05.694Z,18.20
2019-05-21T03:35:11.353Z,18.10
2019-05-21T03:37:15.597Z,18.10
2019-05-21T03:39:19.933Z,18.10
2019-05-21T03:41:24.216Z,18.10
2019-05-21T03:43:28.392Z,18.10
2019-05-21T03:45:32.673Z,18.00
2019-05-21T03:47:36.837Z,18.00
2019-05-21T03:49:41.228Z,18.00
2019-05-21T03:51:45.396Z,18.00
2019-05-21T03:53:49.571Z,18.00
2019-05-21T03:55:53.831Z,18.00
2019-05-21T03:57:57.992Z,18.00
2019-05-21T04:00:02.177Z,17.90
2019-05-21T04:02:06.437Z,17.90
2019-05-21T04:04:10.680Z,18.00
2019-05-21T04:06:15.047Z,18.10
2019-05-21T04:08:19.581Z,18.10
2019-05-21T04:10:25.188Z,18.10
2019-05-21T04:12:29.760Z,18.00
2019-05-21T04:14:38.626Z,18.00
2019-05-21T04:16:53.425Z,18.00
2019-05-21T04:19:16.667Z,18.00
2019-05-21T04:21:20.895Z,18.00
2019-05-21T04:23:25.139Z,18.00
2019-05-21T04:25:29.302Z,18.10
2019-05-21T04:27:33.535Z,17.90
2019-05-21T04:29:38.233Z,18.00
2019-05-21T04:31:42.519Z,17.90
2019-05-21T04:33:46.705Z,18.10
2019-05-21T04:35:51.436Z,18.00
2019-05-21T04:37:57.740Z,18.00
2019-05-21T04:40:01.914Z,18.00
2019-05-21T04:42:06.177Z,18.00
2019-05-21T04:44:10.399Z,18.00
2019-05-21T04:46:14.581Z,17.80
2019-05-21T04:48:18.772Z,17.90
2019-05-21T04:50:22.923Z,17.90
2019-05-21T04:52:27.098Z,17.90
2019-05-21T04:54:31.280Z,17.90
2019-05-21T04:56:35.463Z,18.00
2019-05-21T04:58:39.645Z,17.90
2019-05-21T05:00:44.355Z,17.90
2019-05-21T05:02:48.603Z,17.90
2019-05-21T05:04:54.269Z,17.90
2019-05-21T05:06:59.849Z,17.90
2019-05-21T05:09:06.160Z,17.80
2019-05-21T05:11:10.319Z,17.80
2019-05-21T05:13:14.512Z,17.90
2019-05-21T05:15:18.883Z,17.80
2019-05-21T05:17:23.207Z,17.80
2019-05-21T05:19:27.378Z,17.90
2019-05-21T05:21:31.558Z,17.90
2019-05-21T05:23:35.754Z,17.90
2019-05-21T05:25:39.898Z,17.90
2019-05-21T05:27:44.092Z,17.90
2019-05-21T05:29:48.329Z,18.00
2019-05-21T05:31:52.512Z,17.90
2019-05-21T05:33:56.699Z,18.00
2019-05-21T05:36:00.887Z,17.90
2019-05-21T05:38:05.132Z,17.90
2019-05-21T05:40:10.429Z,17.90
2019-05-21T05:42:14.596Z,18.00
2019-05-21T05:44:18.810Z,18.00
2019-05-21T05:46:22.976Z,18.10
2019-05-21T05:48:27.914Z,18.10
2019-05-21T05:50:35.545Z,18.10
2019-05-21T05:52:39.798Z,18.20
2019-05-21T05:54:43.972Z,18.30
2019-05-21T05:56:48.125Z,18.20
2019-05-21T05:58:52.280Z,18.20
2019-05-21T06:00:56.538Z,18.20
2019-05-21T06:03:00.696Z,18.20
2019-05-21T06:05:05.574Z,18.20
2019-05-21T06:07:09.781Z,18.20
2019-05-21T06:09:13.938Z,18.20
2019-05-21T06:11:18.140Z,18.10
2019-05-21T06:13:22.323Z,18.10
2019-05-21T06:15:26.554Z,18.10
2019-05-21T06:17:30.761Z,18.10
2019-05-21T06:19:34.914Z,18.00
2019-05-21T06:21:39.114Z,18.10
2019-05-21T06:23:43.260Z,18.10
2019-05-21T06:25:47.433Z,18.10
2019-05-21T06:27:51.643Z,18.10
2019-05-21T06:29:55.826Z,18.10
2019-05-21T06:32:00.029Z,18.10
2019-05-21T06:34:04.784Z,17.90
2019-05-21T06:36:09.238Z,18.00
2019-05-21T06:38:17.669Z,18.00
2019-05-21T06:40:19.938Z,18.00
2019-05-21T06:42:24.158Z,18.00
2019-05-21T06:44:28.389Z,18.10
2019-05-21T06:46:32.565Z,18.10
2019-05-21T06:48:36.705Z,18.10
2019-05-21T06:50:40.951Z,18.10
2019-05-21T06:52:45.112Z,18.10
2019-05-21T06:54:49.362Z,18.10
2019-05-21T06:56:53.556Z,18.10
2019-05-21T06:58:57.723Z,18.10
2019-05-21T07:01:01.945Z,18.10
2019-05-21T07:03:06.134Z,18.10
2019-05-21T07:05:10.413Z,18.00
2019-05-21T07:07:14.584Z,17.80
2019-05-21T07:09:18.777Z,17.80
2019-05-21T07:11:23.031Z,17.70
2019-05-21T07:13:30.909Z,17.70
2019-05-21T07:15:33.124Z,17.70
2019-05-21T07:17:37.359Z,17.60
2019-05-21T07:19:41.625Z,17.60
2019-05-21T07:21:45.816Z,17.60
2019-05-21T07:23:49.976Z,17.60
2019-05-21T07:25:54.268Z,17.60
2019-05-21T07:27:58.567Z,17.60
2019-05-21T07:30:02.843Z,17.50
2019-05-21T07:32:07.120Z,17.50
2019-05-21T07:34:11.339Z,17.50
2019-05-21T07:36:15.540Z,17.60
2019-05-21T07:38:19.810Z,17.60
2019-05-21T07:40:24.089Z,17.70
2019-05-21T07:42:28.274Z,17.60
2019-05-21T07:44:33.625Z,17.70
2019-05-21T07:46:39.735Z,17.70
2019-05-21T07:48:43.838Z,17.70
2019-05-21T07:50:48.030Z,17.60
2019-05-21T07:52:53.896Z,17.60
2019-05-21T07:54:58.170Z,17.60
2019-05-21T07:57:02.867Z,17.60
2019-05-21T07:59:07.285Z,17.60
2019-05-21T08:01:11.463Z,17.60
2019-05-21T08:03:15.694Z,17.70
2019-05-21T08:05:19.893Z,17.70
2019-05-21T08:07:24.074Z,17.80
2019-05-21T08:09:28.350Z,17.80
2019-05-21T08:11:32.661Z,17.60
2019-05-21T08:13:36.852Z,17.60
2019-05-21T08:15:41.016Z,17.70
2019-05-21T08:17:45.168Z,17.70
2019-05-21T08:19:49.341Z,17.80
2019-05-21T08:21:53.714Z,17.60
2019-05-21T08:23:57.970Z,17.60
2019-05-21T08:26:02.154Z,17.60
2019-05-21T08:28:06.330Z,17.50
2019-05-21T08:30:10.839Z,17.50
2019-05-21T08:32:15.079Z,17.50
2019-05-21T08:34:19.282Z,17.50
2019-05-21T08:36:23.569Z,17.50
2019-05-21T08:38:27.718Z,17.60
2019-05-21T08:40:31.888Z,17.60
2019-05-21T08:42:36.187Z,17.70
2019-05-21T08:44:40.591Z,17.60
2019-05-21T08:46:44.784Z,17.60
2019-05-21T08:48:49.035Z,17.60
2019-05-21T08:50:53.219Z,17.60
2019-05-21T08:52:57.449Z,17.50
2019-05-21T08:55:01.619Z,17.50
2019-05-21T08:57:05.947Z,17.50
2019-05-21T08:59:10.120Z,17.50
2019-05-21T09:01:14.307Z,17.60
2019-05-21T09:03:18.507Z,17.60
2019-05-21T09:05:24.346Z,17.60
2019-05-21T09:07:28.509Z,17.60
2019-05-21T09:09:48.353Z,17.60
2019-05-21T09:11:40.731Z,17.50
2019-05-21T09:13:44.901Z,17.60
2019-05-21T09:15:49.076Z,17.60
2019-05-21T09:17:53.401Z,17.60
2019-05-21T09:19:57.574Z,17.60
2019-05-21T09:22:01.729Z,17.70
2019-05-21T09:24:05.908Z,17.60
2019-05-21T09:26:10.303Z,17.70
2019-05-21T09:28:14.489Z,17.60
2019-05-21T09:30:19.557Z,17.60
2019-05-21T09:32:23.707Z,17.50
2019-05-21T09:34:28.425Z,17.50
2019-05-21T09:36:32.619Z,17.60
2019-05-21T09:38:36.783Z,17.60
2019-05-21T09:40:41.131Z,17.50
2019-05-21T09:42:45.747Z,17.40
2019-05-21T09:44:50.197Z,17.50
2019-05-21T09:46:54.390Z,17.30
2019-05-21T09:48:58.600Z,17.40
2019-05-21T09:51:02.802Z,17.30
2019-05-21T09:53:07.081Z,17.30
2019-05-21T09:55:12.260Z,17.30
2019-05-21T09:57:20.113Z,17.30
2019-05-21T09:59:49.328Z,17.30
2019-05-21T10:01:55.917Z,17.40
2019-05-21T10:04:00.426Z,17.40
2019-05-21T10:06:04.768Z,17.60
2019-05-21T10:08:08.964Z,17.60
2019-05-21T10:10:13.541Z,17.60
2019-05-21T10:12:17.709Z,17.60
2019-05-21T10:14:21.918Z,17.40
2019-05-21T10:16:26.227Z,17.40
2019-05-21T10:18:30.369Z,17.40
2019-05-21T10:20:34.563Z,17.60
2019-05-21T10:22:40.616Z,17.70
2019-05-21T10:24:44.795Z,17.60
2019-05-21T10:26:48.988Z,17.70
2019-05-21T10:28:53.163Z,17.80
2019-05-21T10:30:57.347Z,17.60
2019-05-21T10:33:01.616Z,17.50
2019-05-21T10:35:06.169Z,17.50
2019-05-21T10:37:10.631Z,17.60
2019-05-21T10:39:15.389Z,17.60
2019-05-21T10:41:19.579Z,17.70
2019-05-21T10:43:23.742Z,17.60
2019-05-21T10:45:27.931Z,17.70
